createdAt,value
2023-04-15T00:01:19.022Z,75.18
2023-04-15T00:03:58.411Z,75.20
2023-04-15T00:06:35.356Z,75.19
2023-04-15T00:09:11.862Z,75.32
2023-04-15T00:11:48.627Z,75.50
2023-04-15T00:14:25.293Z,75.51
2023-04-15T00:17:03.505Z,75.36
2023-04-15T00:19:40.964Z,75.24
2023-04-15T00:22:17.382Z,75.08
2023-04-15T00:24:53.721Z,74.72
2023-04-15T00:27:30.600Z,73.99
2023-04-15T00:30:08.704Z,72.22
2023-04-15T00:32:45.230Z,72.10
2023-04-15T00:35:22.072Z,71.92
2023-04-15T00:38:00.267Z,71.95
2023-04-15T00:40:36.831Z,72.70
2023-04-15T00:43:14.194Z,73.08
2023-04-15T00:45:51.324Z,73.28
2023-04-15T00:48:28.953Z,73.46
2023-04-15T00:51:05.396Z,73.50
2023-04-15T00:53:42.179Z,73.55
2023-04-15T00:56:20.312Z,73.71
2023-04-15T00:58:57.826Z,74.00
2023-04-15T01:01:35.426Z,74.22
2023-04-15T01:04:13.313Z,74.36
2023-04-15T01:06:49.770Z,74.48
2023-04-15T01:09:26.416Z,74.50
2023-04-15T01:12:02.841Z,74.50
2023-04-15T01:14:39.664Z,74.35
2023-04-15T01:17:16.049Z,74.32
2023-04-15T01:19:52.770Z,74.23
2023-04-15T01:22:30.767Z,74.29
2023-04-15T01:25:18.831Z,74.33
2023-04-15T01:27:55.237Z,74.21
2023-04-15T01:30:35.111Z,74.20
2023-04-15T01:33:11.569Z,74.26
2023-04-15T01:35:47.944Z,74.21
2023-04-15T01:38:25.440Z,74.31
2023-04-15T01:41:02.244Z,74.37
2023-04-15T01:43:39.058Z,74.28
2023-04-15T01:46:15.295Z,74.19
2023-04-15T01:48:51.826Z,74.15
2023-04-15T01:51:28.614Z,74.18
2023-04-15T01:54:05.067Z,74.19
2023-04-15T01:56:41.427Z,74.22
2023-04-15T01:59:22.985Z,74.15
2023-04-15T02:02:00.075Z,74.24
2023-04-15T02:04:37.496Z,74.23
2023-04-15T02:07:13.758Z,74.20
2023-04-15T02:09:50.794Z,74.20
2023-04-15T02:12:27.323Z,74.11
2023-04-15T02:15:03.784Z,74.09
2023-04-15T02:17:45.945Z,74.10
2023-04-15T02:20:24.977Z,74.11
2023-04-15T02:23:02.108Z,74.01
2023-04-15T02:25:39.121Z,73.90
2023-04-15T02:28:15.431Z,73.84
2023-04-15T02:30:57.699Z,73.80
2023-04-15T02:33:33.940Z,73.81
2023-04-15T02:36:12.506Z,73.76
2023-04-15T02:38:48.787Z,73.84
2023-04-15T02:41:27.987Z,73.90
2023-04-15T02:44:04.987Z,73.90
2023-04-15T02:46:41.980Z,73.98
2023-04-15T02:49:18.194Z,74.10
2023-04-15T02:51:55.626Z,74.25
2023-04-15T02:54:34.041Z,74.39
2023-04-15T02:57:12.044Z,74.40
2023-04-15T02:59:48.302Z,74.49
2023-04-15T03:02:26.093Z,74.51
2023-04-15T03:05:02.900Z,74.54
2023-04-15T03:07:40.574Z,74.69
2023-04-15T03:10:17.014Z,74.76
2023-04-15T03:12:53.669Z,74.71
2023-04-15T03:15:32.258Z,74.71
2023-04-15T03:18:10.507Z,74.72
2023-04-15T03:20:48.124Z,74.93
2023-04-15T03:23:25.628Z,75.07
2023-04-15T03:26:04.616Z,75.14
2023-04-15T03:28:43.168Z,75.43
2023-04-15T03:31:20.197Z,75.61
2023-04-15T03:33:56.614Z,75.73
2023-04-15T03:36:34.480Z,75.79
2023-04-15T03:39:11.183Z,75.80
2023-04-15T03:41:47.457Z,75.87
2023-04-15T03:44:23.815Z,76.00
2023-04-15T03:47:00.185Z,76.08
2023-04-15T03:49:36.723Z,76.21
2023-04-15T03:52:13.414Z,76.38
2023-04-15T03:54:49.805Z,76.43
2023-04-15T03:57:26.518Z,76.58
2023-04-15T04:00:02.923Z,76.70
2023-04-15T04:02:48.820Z,76.75
2023-04-15T04:05:28.368Z,76.80
2023-04-15T04:08:06.576Z,76.80
2023-04-15T04:10:42.932Z,76.77
2023-04-15T04:13:19.231Z,76.80
2023-04-15T04:15:55.703Z,76.92
2023-04-15T04:18:31.931Z,77.10
2023-04-15T04:21:08.559Z,77.25
2023-04-15T04:23:44.990Z,77.35
2023-04-15T04:26:21.617Z,77.36
2023-04-15T04:28:59.542Z,77.21
2023-04-15T04:31:36.621Z,77.10
2023-04-15T04:34:12.870Z,77.09
2023-04-15T04:36:49.145Z,77.13
2023-04-15T04:39:25.407Z,77.23
2023-04-15T04:42:02.599Z,77.40
2023-04-15T04:44:39.175Z,77.42
2023-04-15T04:47:15.376Z,77.44
2023-04-15T04:49:51.589Z,77.47
2023-04-15T04:52:27.982Z,77.49
2023-04-15T04:55:04.543Z,77.50
2023-04-15T04:57:41.186Z,77.48
2023-04-15T05:00:19.253Z,77.40
2023-04-15T05:02:55.812Z,77.17
2023-04-15T05:05:32.468Z,76.78
2023-04-15T05:08:09.613Z,76.76
2023-04-15T05:10:46.409Z,76.89
2023-04-15T05:13:22.981Z,76.81
2023-04-15T05:15:59.265Z,76.82
2023-04-15T05:18:36.830Z,76.59
2023-04-15T05:21:14.299Z,76.31
2023-04-15T05:23:51.101Z,75.98
2023-04-15T05:26:27.669Z,75.67
2023-04-15T05:29:04.277Z,75.68
2023-04-15T05:31:41.500Z,75.23
2023-04-15T05:34:17.870Z,74.06
2023-04-15T05:36:54.142Z,71.62
2023-04-15T05:39:32.819Z,68.98
2023-04-15T05:42:09.166Z,67.24
2023-04-15T05:44:45.888Z,66.43
2023-04-15T05:47:22.422Z,65.57
2023-04-15T05:49:59.326Z,63.95
2023-04-15T05:52:35.726Z,63.92
2023-04-15T05:55:14.446Z,63.41
2023-04-15T05:57:50.761Z,62.41
2023-04-15T06:00:27.550Z,62.57
2023-04-15T06:03:03.797Z,62.28
2023-04-15T06:05:45.106Z,61.08
2023-04-15T06:08:22.830Z,60.51
2023-04-15T06:10:59.691Z,60.32
2023-04-15T06:13:39.074Z,60.04
2023-04-15T06:16:16.767Z,59.79
2023-04-15T06:18:53.316Z,59.81
2023-04-15T06:21:30.056Z,60.31
2023-04-15T06:24:08.504Z,60.01
2023-04-15T06:26:44.869Z,59.80
2023-04-15T06:29:23.793Z,60.17
2023-04-15T06:32:00.348Z,59.55
2023-04-15T06:34:36.831Z,59.48
2023-04-15T06:37:16.300Z,59.76
2023-04-15T06:39:52.950Z,59.80
2023-04-15T06:42:29.611Z,60.32
2023-04-15T06:45:08.773Z,61.11
2023-04-15T06:47:45.325Z,61.39
2023-04-15T06:50:21.906Z,61.83
2023-04-15T06:52:58.780Z,62.44
2023-04-15T06:55:37.924Z,62.70
2023-04-15T06:58:14.281Z,62.61
2023-04-15T07:00:51.148Z,62.77
2023-04-15T07:03:28.013Z,63.23
2023-04-15T07:06:06.623Z,63.00
2023-04-15T07:08:43.850Z,63.66
2023-04-15T07:11:21.012Z,63.10
2023-04-15T07:14:02.589Z,62.50
2023-04-15T07:16:40.291Z,62.32
2023-04-15T07:19:16.749Z,62.13
2023-04-15T07:21:53.133Z,61.93
2023-04-15T07:24:29.368Z,60.96
2023-04-15T07:27:05.560Z,61.05
2023-04-15T07:29:42.352Z,61.68
2023-04-15T07:32:18.577Z,61.40
2023-04-15T07:34:54.969Z,60.63
2023-04-15T07:37:31.528Z,60.43
2023-04-15T07:40:10.599Z,60.87
2023-04-15T07:42:49.605Z,61.53
2023-04-15T07:45:26.235Z,61.55
2023-04-15T07:48:02.587Z,61.48
2023-04-15T07:50:38.896Z,60.54
2023-04-15T07:53:15.665Z,60.69
2023-04-15T07:55:51.881Z,60.80
2023-04-15T07:58:28.390Z,60.52
2023-04-15T08:01:05.894Z,60.03
2023-04-15T08:03:42.321Z,59.26
2023-04-15T08:08:50.196Z,58.04
2023-04-15T08:11:28.355Z,57.13
2023-04-15T08:14:04.771Z,56.65
2023-04-15T08:16:41.614Z,55.79
2023-04-15T08:19:17.901Z,54.75
2023-04-15T08:21:54.249Z,54.28
2023-04-15T08:24:31.689Z,53.80
2023-04-15T08:27:09.058Z,54.13
2023-04-15T08:29:45.781Z,53.45
2023-04-15T08:32:22.774Z,52.54
2023-04-15T08:34:59.368Z,52.22
2023-04-15T08:37:35.925Z,52.51
2023-04-15T08:40:17.182Z,52.20
2023-04-15T08:43:02.017Z,51.47
2023-04-15T08:45:41.704Z,52.40
2023-04-15T08:48:20.318Z,52.02
2023-04-15T08:50:57.091Z,50.05
2023-04-15T08:53:35.908Z,50.05
2023-04-15T08:56:15.982Z,50.97
2023-04-15T08:58:53.435Z,48.91
2023-04-15T09:01:30.077Z,48.31
2023-04-15T09:04:10.404Z,48.37
2023-04-15T09:06:47.290Z,48.10
2023-04-15T09:09:23.563Z,47.68
2023-04-15T09:11:59.767Z,48.02
2023-04-15T09:14:36.412Z,47.80
2023-04-15T09:17:19.865Z,45.55
2023-04-15T09:20:15.266Z,45.68
2023-04-15T09:22:55.016Z,44.54
2023-04-15T09:25:35.164Z,45.50
2023-04-15T09:28:12.165Z,46.25
2023-04-15T09:30:52.783Z,46.68
2023-04-15T09:33:31.698Z,45.14
2023-04-15T09:36:09.817Z,45.33
2023-04-15T09:39:00.859Z,44.82
2023-04-15T09:41:37.208Z,43.93
2023-04-15T09:44:27.981Z,43.55
2023-04-15T09:47:04.247Z,43.68
2023-04-15T09:49:56.512Z,44.56
2023-04-15T09:52:33.673Z,44.47
2023-04-15T09:55:15.612Z,45.18
2023-04-15T09:57:52.480Z,44.97
2023-04-15T10:00:30.985Z,45.06
2023-04-15T10:03:08.811Z,44.04
2023-04-15T10:05:45.686Z,44.50
2023-04-15T10:08:25.193Z,44.36
2023-04-15T10:11:02.961Z,45.33
2023-04-15T10:13:40.752Z,45.39
2023-04-15T10:16:20.952Z,44.81
2023-04-15T10:19:02.573Z,43.90
2023-04-15T10:21:39.134Z,44.76
2023-04-15T10:24:16.827Z,45.14
2023-04-15T10:26:54.329Z,45.55
2023-04-15T10:29:31.272Z,45.20
2023-04-15T10:32:08.581Z,45.67
2023-04-15T10:34:46.048Z,44.92
2023-04-15T10:37:38.010Z,44.80
2023-04-15T10:40:34.888Z,45.37
2023-04-15T10:43:27.840Z,45.58
2023-04-15T10:46:07.015Z,44.82
2023-04-15T10:48:52.510Z,44.86
2023-04-15T10:51:36.033Z,45.53
2023-04-15T10:54:17.766Z,44.40
2023-04-15T10:57:13.745Z,43.63
2023-04-15T11:00:18.625Z,43.93
2023-04-15T11:03:00.116Z,44.92
2023-04-15T11:05:57.121Z,44.12
2023-04-15T11:09:06.163Z,44.86
2023-04-15T11:12:13.414Z,45.77
2023-04-15T11:14:51.123Z,45.69
2023-04-15T11:17:34.757Z,45.85
2023-04-15T11:20:17.775Z,44.83
2023-04-15T11:23:14.078Z,45.57
2023-04-15T11:25:52.188Z,45.41
2023-04-15T11:28:32.679Z,45.13
2023-04-15T11:31:18.133Z,44.89
2023-04-15T11:34:02.622Z,45.22
2023-04-15T11:36:39.440Z,45.82
2023-04-15T11:39:16.850Z,46.37
2023-04-15T11:41:53.171Z,47.33
2023-04-15T11:44:29.662Z,45.80
2023-04-15T11:47:25.392Z,45.59
2023-04-15T11:50:21.267Z,46.29
2023-04-15T11:53:06.880Z,46.36
2023-04-15T11:55:53.395Z,46.86
2023-04-15T11:58:30.956Z,46.65
2023-04-15T12:01:09.189Z,46.73
2023-04-15T12:03:48.478Z,47.44
2023-04-15T12:06:27.929Z,46.16
2023-04-15T12:09:14.017Z,47.24
2023-04-15T12:11:53.125Z,48.90
2023-04-15T12:14:32.855Z,48.24
2023-04-15T12:17:14.175Z,47.89
2023-04-15T12:19:50.731Z,47.36
2023-04-15T12:22:27.027Z,47.18
2023-04-15T12:25:05.937Z,47.79
2023-04-15T12:27:42.702Z,46.54
2023-04-15T12:30:20.139Z,46.49
2023-04-15T12:32:59.958Z,46.20
2023-04-15T12:35:36.403Z,46.82
2023-04-15T12:38:12.870Z,46.41
2023-04-15T12:40:51.692Z,45.88
2023-04-15T12:43:28.796Z,46.31
2023-04-15T12:46:07.115Z,47.24
2023-04-15T12:48:43.878Z,46.95
2023-04-15T12:51:21.556Z,46.50
2023-04-15T12:53:58.584Z,46.21
2023-04-15T12:56:34.899Z,47.42
2023-04-15T12:59:11.166Z,47.31
2023-04-15T13:01:48.438Z,46.98
2023-04-15T13:04:30.948Z,46.81
2023-04-15T13:07:07.838Z,46.93
2023-04-15T13:09:44.995Z,47.29
2023-04-15T13:12:21.882Z,48.57
2023-04-15T13:14:59.083Z,48.40
2023-04-15T13:17:35.485Z,47.49
2023-04-15T13:20:13.958Z,47.47
2023-04-15T13:22:53.459Z,48.30
2023-04-15T13:25:29.799Z,47.92
2023-04-15T13:28:06.242Z,48.42
2023-04-15T13:30:44.250Z,48.32
2023-04-15T13:33:22.964Z,48.92
2023-04-15T13:36:03.626Z,49.01
2023-04-15T13:38:41.013Z,48.96
2023-04-15T13:41:17.491Z,47.82
2023-04-15T13:43:53.852Z,47.46
2023-04-15T13:46:30.218Z,46.95
2023-04-15T13:49:06.578Z,46.76
2023-04-15T13:51:42.902Z,46.60
2023-04-15T13:54:19.319Z,46.62
2023-04-15T13:56:56.812Z,47.09
2023-04-15T13:59:34.306Z,45.49
2023-04-15T14:02:11.395Z,46.09
2023-04-15T14:04:47.950Z,45.49
2023-04-15T14:07:24.520Z,45.24
2023-04-15T14:10:01.195Z,45.84
2023-04-15T14:12:37.866Z,44.33
2023-04-15T14:15:15.832Z,42.73
2023-04-15T14:17:52.564Z,42.79
2023-04-15T14:20:32.788Z,43.44
2023-04-15T14:23:09.156Z,45.36
2023-04-15T14:25:47.962Z,47.61
2023-04-15T14:28:25.542Z,48.14
2023-04-15T14:31:01.974Z,48.20
2023-04-15T14:33:38.292Z,48.29
2023-04-15T14:36:15.598Z,49.11
2023-04-15T14:38:51.966Z,48.95
2023-04-15T14:41:32.445Z,48.17
2023-04-15T14:44:11.693Z,48.44
2023-04-15T14:46:48.017Z,48.90
2023-04-15T14:49:24.487Z,49.16
2023-04-15T14:52:00.790Z,49.61
2023-04-15T14:54:37.139Z,50.47
2023-04-15T14:57:13.690Z,51.10
2023-04-15T14:59:50.158Z,51.55
2023-04-15T15:02:38.149Z,52.03
2023-04-15T15:05:16.666Z,51.34
2023-04-15T15:07:53.284Z,51.58
2023-04-15T15:10:38.383Z,51.70
2023-04-15T15:13:26.043Z,51.86
2023-04-15T15:16:02.354Z,51.44
2023-04-15T15:18:39.861Z,51.19
2023-04-15T15:21:17.026Z,50.66
2023-04-15T15:23:53.574Z,51.10
2023-04-15T15:26:30.045Z,51.65
2023-04-15T15:29:10.710Z,52.19
2023-04-15T15:31:47.215Z,52.27
2023-04-15T15:34:29.381Z,51.67
2023-04-15T15:37:06.271Z,51.13
2023-04-15T15:39:42.933Z,51.18
2023-04-15T15:42:20.069Z,50.79
2023-04-15T15:44:56.679Z,50.91
2023-04-15T15:47:33.211Z,50.53
2023-04-15T15:50:11.162Z,50.30
2023-04-15T15:52:47.623Z,50.52
2023-04-15T15:55:25.881Z,48.45
2023-04-15T15:58:02.199Z,48.68
2023-04-15T16:00:38.685Z,49.95
2023-04-15T16:03:15.564Z,50.43
2023-04-15T16:05:52.271Z,50.53
2023-04-15T16:08:28.991Z,49.70
2023-04-15T16:11:05.489Z,49.82
2023-04-15T16:13:42.027Z,49.88
2023-04-15T16:16:18.256Z,50.61
2023-04-15T16:18:56.913Z,51.02
2023-04-15T16:21:33.278Z,51.80
2023-04-15T16:24:10.175Z,52.38
2023-04-15T16:26:46.501Z,52.72
2023-04-15T16:29:22.863Z,52.91
2023-04-15T16:31:59.565Z,53.32
2023-04-15T16:34:39.159Z,53.50
2023-04-15T16:37:16.029Z,54.00
2023-04-15T16:39:52.461Z,54.29
2023-04-15T16:42:28.815Z,53.59
2023-04-15T16:45:05.644Z,53.46
2023-04-15T16:47:42.081Z,53.87
2023-04-15T16:50:18.714Z,53.83
2023-04-15T16:52:55.911Z,53.90
2023-04-15T16:55:32.783Z,54.40
2023-04-15T16:58:08.988Z,54.83
2023-04-15T17:00:45.728Z,55.11
2023-04-15T17:03:22.142Z,55.30
2023-04-15T17:06:01.423Z,55.67
2023-04-15T17:08:37.700Z,55.77
2023-04-15T17:11:15.484Z,56.08
2023-04-15T17:13:52.157Z,56.31
2023-04-15T17:16:29.038Z,56.86
2023-04-15T17:19:05.532Z,57.08
2023-04-15T17:21:42.211Z,57.49
2023-04-15T17:24:18.655Z,57.77
2023-04-15T17:26:56.544Z,58.04
2023-04-15T17:29:33.009Z,58.36
2023-04-15T17:32:11.510Z,58.71
2023-04-15T17:34:49.792Z,59.01
2023-04-15T17:37:27.433Z,59.34
2023-04-15T17:40:06.636Z,59.79
2023-04-15T17:42:44.870Z,60.09
2023-04-15T17:45:21.690Z,60.40
2023-04-15T17:48:00.808Z,61.18
2023-04-15T17:50:40.218Z,61.98
2023-04-15T17:53:16.684Z,63.37
2023-04-15T17:55:53.870Z,64.03
2023-04-15T17:58:35.185Z,64.35
2023-04-15T18:01:11.556Z,64.40
2023-04-15T18:03:50.079Z,64.73
2023-04-15T18:06:27.516Z,65.09
2023-04-15T18:09:08.795Z,65.27
2023-04-15T18:11:47.426Z,65.56
2023-04-15T18:14:34.092Z,65.88
2023-04-15T18:17:13.571Z,66.42
2023-04-15T18:19:50.145Z,66.70
2023-04-15T18:22:27.352Z,66.57
2023-04-15T18:25:04.696Z,67.06
2023-04-15T18:27:41.599Z,67.23
2023-04-15T18:30:19.469Z,67.64
2023-04-15T18:32:57.229Z,68.07
2023-04-15T18:35:35.321Z,68.79
2023-04-15T18:38:12.203Z,69.13
2023-04-15T18:40:58.900Z,69.13
2023-04-15T18:43:35.984Z,69.45
2023-04-15T18:46:13.925Z,69.68
2023-04-15T18:48:52.685Z,70.20
2023-04-15T18:51:29.427Z,70.71
2023-04-15T18:54:08.777Z,71.03
2023-04-15T18:56:45.457Z,71.39
2023-04-15T18:59:28.810Z,71.49
2023-04-15T19:02:09.149Z,71.71
2023-04-15T19:04:46.112Z,71.89
2023-04-15T19:07:24.085Z,71.85
2023-04-15T19:10:00.932Z,71.98
2023-04-15T19:12:37.847Z,72.36
2023-04-15T19:15:16.388Z,72.83
2023-04-15T19:17:52.904Z,72.93
2023-04-15T19:20:29.919Z,72.93
2023-04-15T19:23:07.118Z,72.84
2023-04-15T19:25:43.575Z,72.76
2023-04-15T19:28:20.369Z,73.04
2023-04-15T19:30:58.239Z,73.64
2023-04-15T19:33:35.253Z,73.94
2023-04-15T19:36:13.117Z,74.11
2023-04-15T19:38:50.027Z,74.13
2023-04-15T19:41:28.616Z,73.82
2023-04-15T19:44:09.041Z,73.71
2023-04-15T19:46:49.847Z,73.65
2023-04-15T19:49:26.335Z,73.56
2023-04-15T19:52:02.792Z,73.87
2023-04-15T19:54:39.090Z,74.18
2023-04-15T19:57:15.498Z,74.36
2023-04-15T19:59:51.795Z,74.42
2023-04-15T20:02:29.960Z,74.44
2023-04-15T20:05:10.046Z,74.48
2023-04-15T20:07:48.492Z,74.49
2023-04-15T20:10:27.306Z,74.61
2023-04-15T20:13:04.275Z,74.84
2023-04-15T20:15:40.861Z,75.28
2023-04-15T20:18:17.424Z,75.20
2023-04-15T20:20:53.890Z,75.24
2023-04-15T20:23:30.289Z,75.38
2023-04-15T20:26:06.717Z,75.45
2023-04-15T20:28:45.603Z,75.46
2023-04-15T20:31:21.864Z,75.41
2023-04-15T20:34:01.502Z,75.50
2023-04-15T20:36:37.815Z,75.47
2023-04-15T20:39:14.383Z,75.23
2023-04-15T20:41:54.285Z,75.26
2023-04-15T20:44:30.802Z,75.48
2023-04-15T20:47:07.515Z,75.60
2023-04-15T20:49:44.491Z,75.64
2023-04-15T20:52:20.927Z,75.66
2023-04-15T20:54:57.391Z,75.87
2023-04-15T20:57:33.712Z,75.99
2023-04-15T21:00:16.508Z,75.91
2023-04-15T21:02:53.066Z,75.91
2023-04-15T21:05:29.581Z,75.90
2023-04-15T21:08:06.065Z,75.85
2023-04-15T21:10:42.312Z,76.01
2023-04-15T21:13:18.576Z,76.12
2023-04-15T21:15:55.073Z,76.19
2023-04-15T21:18:31.649Z,76.28
2023-04-15T21:21:08.706Z,76.27
2023-04-15T21:23:45.089Z,76.17
2023-04-15T21:26:21.658Z,76.32
2023-04-15T21:28:58.029Z,76.45
2023-04-15T21:31:34.330Z,76.40
2023-04-15T21:34:11.359Z,76.35
2023-04-15T21:36:47.859Z,76.30
2023-04-15T21:39:24.308Z,76.33
2023-04-15T21:42:00.636Z,76.44
2023-04-15T21:44:37.557Z,76.48
2023-04-15T21:47:13.932Z,76.43
2023-04-15T21:49:50.739Z,76.42
2023-04-15T21:52:27.368Z,76.43
2023-04-15T21:55:03.619Z,76.51
2023-04-15T21:57:40.001Z,76.71
2023-04-15T22:00:18.796Z,76.73
2023-04-15T22:02:55.540Z,76.70
2023-04-15T22:05:32.086Z,76.73
2023-04-15T22:08:09.103Z,76.85
2023-04-15T22:10:45.599Z,76.97
2023-04-15T22:13:22.866Z,77.10
2023-04-15T22:15:59.162Z,77.14
2023-04-15T22:18:35.493Z,77.19
2023-04-15T22:21:11.892Z,77.12
2023-04-15T22:23:50.485Z,77.10
2023-04-15T22:26:26.983Z,77.19
2023-04-15T22:29:03.719Z,77.20
2023-04-15T22:31:42.051Z,77.33
2023-04-15T22:34:21.546Z,77.48
2023-04-15T22:36:58.208Z,77.78
2023-04-15T22:39:34.643Z,77.91
2023-04-15T22:42:11.070Z,78.00
2023-04-15T22:44:47.386Z,78.22
2023-04-15T22:47:23.868Z,78.30
2023-04-15T22:50:03.602Z,78.31
2023-04-15T22:52:40.013Z,78.34
2023-04-15T22:55:17.439Z,78.41
2023-04-15T22:57:54.011Z,78.36
2023-04-15T23:00:30.481Z,78.48
2023-04-15T23:03:07.137Z,78.62
2023-04-15T23:05:45.636Z,78.69
2023-04-15T23:08:23.898Z,78.77
2023-04-15T23:11:00.159Z,78.74
2023-04-15T23:13:36.721Z,78.64
2023-04-15T23:16:13.908Z,78.89
2023-04-15T23:18:50.469Z,79.26
2023-04-15T23:21:27.547Z,79.59
2023-04-15T23:24:04.015Z,79.61
2023-04-15T23:26:40.998Z,79.52
2023-04-15T23:29:17.278Z,79.57
2023-04-15T23:31:53.934Z,79.63
2023-04-15T23:34:30.711Z,79.52
2023-04-15T23:37:07.032Z,79.52
2023-04-15T23:39:43.232Z,79.57
2023-04-15T23:42:19.504Z,79.55
2023-04-15T23:44:55.771Z,79.51
2023-04-15T23:47:32.057Z,79.57
2023-04-15T23:50:10.917Z,79.63
2023-04-15T23:52:47.526Z,79.66
2023-04-15T23:55:24.047Z,79.65
2023-04-15T23:58:00.461Z,79.75
